Time;durP1;ratioP1;P1;durP2;ratioP2;P2;SDS_P1;SDS_P2;PMS_P1;PMS_P2;Temp;Humidity;BMP_temperature;BMP_pressure;BME280_temperature;BME280_humidity;BME280_pressure;Samples;Min_cycle;Max_cycle;Signal;HPM_P1;HPM_P2
2022/06/16 00:02:00;;;;;;;;;;;23.40;57.40;;;;;;5049116;28;19921;-60
2022/06/16 00:04:26;;;;;;;;;;;23.40;57.50;;;;;;5050323;28;20591;-59
2022/06/16 00:06:53;;;;;;;;;;;23.40;57.70;;;;;;5054681;28;19912;-59
2022/06/16 00:09:19;;;;;;;;;;;23.40;57.90;;;;;;5053423;28;20008;-59
2022/06/16 00:11:44;;;;;;;;;;;23.30;58.80;;;;;;5054566;28;19983;-60
2022/06/16 00:14:10;;;;;;;;;;;23.20;58.60;;;;;;5053734;28;19920;-59
2022/06/16 00:16:36;;;;;;;;;;;23.10;59.30;;;;;;5054116;28;19915;-61
2022/06/16 00:19:01;;;;;;;;;;;23.10;59.20;;;;;;5054016;28;20236;-60
2022/06/16 00:21:27;;;;;;;;;;;23.10;60.00;;;;;;5053071;28;19916;-61
2022/06/16 00:23:52;;;;;;;;;;;23.00;59.50;;;;;;5053358;28;19909;-60
2022/06/16 00:26:20;;;;;;;;;;;23.00;60.20;;;;;;5053407;28;19919;-58
2022/06/16 00:28:46;;;;;;;;;;;22.90;60.30;;;;;;5054314;28;20358;-59
2022/06/16 00:31:12;;;;;;;;;;;22.80;60.60;;;;;;5052559;28;20003;-59
2022/06/16 00:33:38;;;;;;;;;;;22.80;61.00;;;;;;5053376;28;19913;-58
2022/06/16 00:36:04;;;;;;;;;;;22.70;61.90;;;;;;5053001;28;19917;-58
2022/06/16 00:38:30;;;;;;;;;;;22.60;61.80;;;;;;5035215;28;19912;-59
2022/06/16 00:40:55;;;;;;;;;;;22.60;62.30;;;;;;5053992;28;19913;-61
2022/06/16 00:43:21;;;;;;;;;;;22.50;61.60;;;;;;5053649;28;19917;-60
2022/06/16 00:45:59;;;;;;;;;;;22.50;62.60;;;;;;5052388;28;19916;-60
2022/06/16 00:48:29;;;;;;;;;;;22.40;62.40;;;;;;5053157;28;20387;-60
2022/06/16 00:50:58;;;;;;;;;;;22.40;62.70;;;;;;5056272;28;20363;-60
2022/06/16 00:53:24;;;;;;;;;;;22.30;62.50;;;;;;5037716;28;19921;-59
2022/06/16 00:55:51;;;;;;;;;;;22.30;63.20;;;;;;5053348;28;19923;-59
2022/06/16 00:58:17;;;;;;;;;;;22.30;62.30;;;;;;5055787;28;19974;-60
2022/06/16 01:00:45;;;;;;;;;;;22.20;62.50;;;;;;5052559;28;19913;-61
2022/06/16 01:03:11;;;;;;;;;;;22.20;63.60;;;;;;5053793;28;19929;-60
2022/06/16 01:05:37;;;;;;;;;;;22.20;63.20;;;;;;5054158;28;19913;-59
2022/06/16 01:08:04;;;;;;;;;;;22.10;62.90;;;;;;5056285;28;19913;-61
2022/06/16 01:10:40;;;;;;;;;;;22.10;63.50;;;;;;5057503;28;19909;-60
2022/06/16 01:15:53;;;;;;;;;;;21.90;64.30;;;;;;5052003;28;19936;-60
2022/06/16 01:18:23;;;;;;;;;;;21.90;64.10;;;;;;5053030;28;19963;-60
2022/06/16 01:21:01;;;;;;;;;;;21.80;64.20;;;;;;5052340;28;20371;-60
2022/06/16 01:23:58;;;;;;;;;;;21.80;65.70;;;;;;5050474;28;20291;-59
2022/06/16 01:26:24;;;;;;;;;;;21.70;65.40;;;;;;4970998;28;19921;-60
2022/06/16 01:29:05;;;;;;;;;;;21.70;64.80;;;;;;4971321;28;20377;-60
2022/06/16 01:31:42;;;;;;;;;;;21.70;64.00;;;;;;4976964;28;19977;-60
2022/06/16 01:34:10;;;;;;;;;;;21.70;64.40;;;;;;4971084;28;19957;-60
2022/06/16 01:36:38;;;;;;;;;;;21.70;64.60;;;;;;4970944;28;19968;-61
2022/06/16 01:39:38;;;;;;;;;;;21.70;64.90;;;;;;4974922;28;19921;-60
2022/06/16 01:42:36;;;;;;;;;;;21.60;64.50;;;;;;4928703;29;20058;-59
2022/06/16 01:45:07;;;;;;;;;;;21.60;65.50;;;;;;4894590;29;20014;-60
2022/06/16 01:47:34;;;;;;;;;;;21.60;65.00;;;;;;4894407;29;20442;-60
2022/06/16 01:50:01;;;;;;;;;;;21.60;64.80;;;;;;4892659;29;20398;-61
2022/06/16 01:52:28;;;;;;;;;;;21.60;65.70;;;;;;4891592;29;20010;-59
2022/06/16 01:55:00;;;;;;;;;;;21.50;65.70;;;;;;4893569;29;20306;-61
2022/06/16 01:57:29;;;;;;;;;;;21.40;65.70;;;;;;4893896;29;20069;-60
2022/06/16 02:00:17;;;;;;;;;;;21.40;66.30;;;;;;4894090;29;19923;-59
2022/06/16 02:02:43;;;;;;;;;;;21.40;66.00;;;;;;4939671;29;19934;-60
2022/06/16 02:05:17;;;;;;;;;;;21.40;66.20;;;;;;4951133;29;19918;-59
2022/06/16 02:07:46;;;;;;;;;;;21.30;65.90;;;;;;4951960;29;20134;-60
2022/06/16 02:10:16;;;;;;;;;;;21.30;66.00;;;;;;4950790;29;19914;-60
2022/06/16 02:12:56;;;;;;;;;;;21.20;66.70;;;;;;4949633;29;19918;-60
2022/06/16 02:15:24;;;;;;;;;;;21.20;66.50;;;;;;4962324;28;19925;-59
2022/06/16 02:17:50;;;;;;;;;;;21.20;67.10;;;;;;5003109;28;20405;-60
2022/06/16 02:20:15;;;;;;;;;;;21.10;66.70;;;;;;5022841;28;20003;-60
2022/06/16 02:22:41;;;;;;;;;;;21.10;67.50;;;;;;5053293;28;20287;-60
2022/06/16 02:25:07;;;;;;;;;;;21.10;67.40;;;;;;5032630;28;19917;-60
2022/06/16 02:27:32;;;;;;;;;;;21.10;67.50;;;;;;5051412;28;19913;-59
2022/06/16 02:29:58;;;;;;;;;;;21.00;67.00;;;;;;5050193;28;20334;-59
2022/06/16 02:32:23;;;;;;;;;;;21.00;67.00;;;;;;5051481;28;19920;-61
2022/06/16 02:35:06;;;;;;;;;;;21.00;67.50;;;;;;5056449;28;19963;-60
2022/06/16 02:37:50;;;;;;;;;;;20.90;67.20;;;;;;5052264;28;20007;-60
2022/06/16 02:40:15;;;;;;;;;;;20.90;67.90;;;;;;5050823;28;20383;-61
2022/06/16 02:42:55;;;;;;;;;;;20.90;67.50;;;;;;5051037;28;19956;-60
2022/06/16 02:45:39;;;;;;;;;;;20.90;67.60;;;;;;5051129;28;19990;-61
2022/06/16 02:48:13;;;;;;;;;;;20.90;67.20;;;;;;5050461;28;20003;-60
2022/06/16 02:50:45;;;;;;;;;;;20.80;69.10;;;;;;5050418;28;19913;-60
2022/06/16 02:54:22;;;;;;;;;;;20.70;68.80;;;;;;5050811;28;19913;-60
2022/06/16 02:56:30;;;;;;;;;;;20.70;68.50;;;;;;5041352;28;19925;-61
2022/06/16 02:58:58;;;;;;;;;;;20.70;68.20;;;;;;5051331;28;19913;-61
2022/06/16 03:01:23;;;;;;;;;;;20.70;68.40;;;;;;5051005;28;19924;-60
2022/06/16 03:04:03;;;;;;;;;;;20.70;69.60;;;;;;5050533;28;19913;-59
2022/06/16 03:06:29;;;;;;;;;;;20.60;68.80;;;;;;5050278;28;19920;-60
2022/06/16 03:08:55;;;;;;;;;;;20.60;68.50;;;;;;5050363;28;19917;-59
2022/06/16 03:11:21;;;;;;;;;;;20.60;68.80;;;;;;5050354;28;19912;-61
2022/06/16 03:13:46;;;;;;;;;;;20.60;68.80;;;;;;5051123;28;19909;-60
2022/06/16 03:16:12;;;;;;;;;;;20.60;69.70;;;;;;5050576;28;20532;-59
2022/06/16 03:18:37;;;;;;;;;;;20.50;70.10;;;;;;5050414;28;19966;-60
2022/06/16 03:21:03;;;;;;;;;;;20.50;69.60;;;;;;5050072;28;19920;-60
2022/06/16 03:23:28;;;;;;;;;;;20.50;69.90;;;;;;5052442;28;20001;-59
2022/06/16 03:25:54;;;;;;;;;;;20.50;70.10;;;;;;5050846;28;19916;-60
2022/06/16 03:28:20;;;;;;;;;;;20.50;70.70;;;;;;5050786;28;20003;-60
2022/06/16 03:30:45;;;;;;;;;;;20.40;70.10;;;;;;5049923;28;19925;-60
2022/06/16 03:33:11;;;;;;;;;;;20.40;69.80;;;;;;5051175;28;19916;-60
2022/06/16 03:35:37;;;;;;;;;;;20.40;70.80;;;;;;5050438;28;19960;-60
2022/06/16 03:38:46;;;;;;;;;;;20.30;70.60;;;;;;5053318;28;19917;-59
2022/06/16 03:40:52;;;;;;;;;;;20.30;70.70;;;;;;5041150;28;19908;-60
2022/06/16 03:43:18;;;;;;;;;;;20.30;70.50;;;;;;5056826;28;19909;-60
2022/06/16 03:45:43;;;;;;;;;;;20.30;70.90;;;;;;5050041;28;19919;-59
2022/06/16 03:48:09;;;;;;;;;;;20.20;71.70;;;;;;5049731;28;19913;-60
2022/06/16 03:50:34;;;;;;;;;;;20.20;71.90;;;;;;5049511;28;20279;-60
2022/06/16 03:53:00;;;;;;;;;;;20.10;72.20;;;;;;5050135;28;19966;-59
2022/06/16 03:55:26;;;;;;;;;;;20.10;71.60;;;;;;5049638;28;20478;-61
2022/06/16 03:57:52;;;;;;;;;;;20.10;71.80;;;;;;5049526;28;19991;-60
2022/06/16 04:00:18;;;;;;;;;;;20.10;71.70;;;;;;5049051;28;20003;-60
2022/06/16 04:02:44;;;;;;;;;;;20.10;72.50;;;;;;5048844;28;19928;-59
2022/06/16 04:05:10;;;;;;;;;;;20.00;73.40;;;;;;5031214;28;19920;-59
2022/06/16 04:07:36;;;;;;;;;;;20.00;72.10;;;;;;5049714;28;20023;-59
2022/06/16 04:10:05;;;;;;;;;;;20.00;73.00;;;;;;5048843;28;19916;-59
2022/06/16 04:12:31;;;;;;;;;;;20.00;73.40;;;;;;5049401;28;19913;-61
2022/06/16 04:14:56;;;;;;;;;;;20.00;72.80;;;;;;5048838;28;19967;-58
2022/06/16 04:17:22;;;;;;;;;;;20.00;72.70;;;;;;5049201;28;19916;-59
2022/06/16 04:22:32;;;;;;;;;;;19.90;73.00;;;;;;5048704;28;19943;-59
2022/06/16 04:24:57;;;;;;;;;;;20.00;73.60;;;;;;5048975;28;19913;-59
2022/06/16 04:27:23;;;;;;;;;;;19.90;72.70;;;;;;5049005;28;20299;-58
2022/06/16 04:29:50;;;;;;;;;;;20.00;72.70;;;;;;5055194;28;20006;-59
2022/06/16 04:32:15;;;;;;;;;;;20.00;72.20;;;;;;5049052;28;19952;-60
2022/06/16 04:34:42;;;;;;;;;;;20.00;72.70;;;;;;5050557;28;20036;-59
2022/06/16 04:37:08;;;;;;;;;;;20.00;72.90;;;;;;5049227;28;19957;-58
2022/06/16 04:39:34;;;;;;;;;;;20.00;72.50;;;;;;5049372;28;19956;-59
2022/06/16 04:41:59;;;;;;;;;;;20.10;72.70;;;;;;5033673;28;19966;-59
2022/06/16 04:44:25;;;;;;;;;;;20.00;72.60;;;;;;5049522;28;20252;-59
2022/06/16 04:46:50;;;;;;;;;;;20.00;72.90;;;;;;5049661;28;19913;-59
2022/06/16 04:49:16;;;;;;;;;;;20.00;72.90;;;;;;5049528;28;19913;-60
2022/06/16 04:51:41;;;;;;;;;;;20.00;72.80;;;;;;5049681;28;19982;-58
2022/06/16 04:54:07;;;;;;;;;;;20.10;72.70;;;;;;5057487;28;19913;-59
2022/06/16 04:56:32;;;;;;;;;;;20.20;72.70;;;;;;5052961;28;19916;-58
2022/06/16 04:58:58;;;;;;;;;;;20.20;73.20;;;;;;5057998;28;20007;-59
2022/06/16 05:01:23;;;;;;;;;;;20.20;73.30;;;;;;5053623;28;19917;-58
2022/06/16 05:03:49;;;;;;;;;;;20.20;72.80;;;;;;5053269;28;19960;-59
2022/06/16 05:06:14;;;;;;;;;;;20.20;72.60;;;;;;5052109;28;20319;-59
2022/06/16 05:08:40;;;;;;;;;;;20.30;72.40;;;;;;5053116;28;20012;-58
2022/06/16 05:11:06;;;;;;;;;;;20.30;72.80;;;;;;5053066;28;19996;-59
2022/06/16 05:13:32;;;;;;;;;;;20.40;72.30;;;;;;5054529;28;19913;-59
2022/06/16 05:15:57;;;;;;;;;;;20.40;72.60;;;;;;5052897;28;19913;-58
2022/06/16 05:18:23;;;;;;;;;;;20.40;72.90;;;;;;5052656;28;19920;-59
2022/06/16 05:20:48;;;;;;;;;;;20.40;72.70;;;;;;5035756;28;20004;-59
2022/06/16 05:23:14;;;;;;;;;;;20.40;72.70;;;;;;5052927;28;20390;-59
2022/06/16 05:25:40;;;;;;;;;;;20.40;73.10;;;;;;5053651;28;19921;-59
2022/06/16 05:28:06;;;;;;;;;;;20.40;73.20;;;;;;5052032;28;20007;-59
2022/06/16 05:30:32;;;;;;;;;;;20.40;73.40;;;;;;5034297;28;19920;-59
2022/06/16 05:32:57;;;;;;;;;;;20.30;73.30;;;;;;5053572;28;20299;-59
2022/06/16 05:35:23;;;;;;;;;;;20.30;72.90;;;;;;5051640;28;19917;-59
2022/06/16 05:37:48;;;;;;;;;;;20.40;73.30;;;;;;5052507;28;19995;-59
2022/06/16 05:40:14;;;;;;;;;;;20.40;73.40;;;;;;5052302;28;19948;-58
2022/06/16 05:42:39;;;;;;;;;;;20.50;73.00;;;;;;5051460;28;19916;-58
2022/06/16 05:45:05;;;;;;;;;;;20.50;73.10;;;;;;5033666;28;20031;-60
2022/06/16 05:47:31;;;;;;;;;;;20.50;73.00;;;;;;5052215;28;19912;-57
2022/06/16 05:49:57;;;;;;;;;;;20.50;73.00;;;;;;5052466;28;19916;-59
2022/06/16 05:52:23;;;;;;;;;;;20.50;73.40;;;;;;5052684;28;20508;-58
2022/06/16 05:54:48;;;;;;;;;;;20.40;73.40;;;;;;5053426;28;20409;-59
2022/06/16 05:57:14;;;;;;;;;;;20.40;73.80;;;;;;5051722;28;20405;-58
2022/06/16 05:59:40;;;;;;;;;;;20.40;73.40;;;;;;5051553;28;19921;-59
2022/06/16 06:02:10;;;;;;;;;;;20.40;73.30;;;;;;5051553;28;19921;-59
2022/06/16 06:04:35;;;;;;;;;;;20.50;73.30;;;;;;5051128;28;19925;-60
2022/06/16 06:07:01;;;;;;;;;;;20.50;73.50;;;;;;5052334;28;19915;-60
2022/06/16 06:17:43;;;;;;;;;;;20.60;73.50;;;;;;5051942;28;20415;-59
2022/06/16 06:20:09;;;;;;;;;;;20.60;73.70;;;;;;5050790;28;20003;-58
2022/06/16 06:22:35;;;;;;;;;;;20.70;73.60;;;;;;5059410;28;19956;-61
2022/06/16 06:25:01;;;;;;;;;;;20.70;73.70;;;;;;5052751;28;19968;-63
2022/06/16 06:27:53;;;;;;;;;;;20.70;73.60;;;;;;5053170;28;20307;-62
2022/06/16 06:30:21;;;;;;;;;;;20.70;73.50;;;;;;5043039;28;20330;-60
2022/06/16 06:32:47;;;;;;;;;;;20.80;73.40;;;;;;5051369;28;19970;-60
2022/06/16 06:35:12;;;;;;;;;;;20.70;73.40;;;;;;5050911;28;19991;-62
2022/06/16 06:37:38;;;;;;;;;;;20.80;73.50;;;;;;5051511;28;19909;-62
2022/06/16 06:40:04;;;;;;;;;;;20.70;73.20;;;;;;5050305;28;20483;-60
2022/06/16 06:42:30;;;;;;;;;;;20.80;73.30;;;;;;5050453;28;19913;-62
2022/06/16 06:44:55;;;;;;;;;;;20.80;73.20;;;;;;5032737;28;19970;-63
2022/06/16 06:47:23;;;;;;;;;;;20.80;73.00;;;;;;5054935;28;19919;-62
2022/06/16 06:49:48;;;;;;;;;;;20.80;73.20;;;;;;5058704;28;19916;-63
2022/06/16 06:52:14;;;;;;;;;;;20.90;73.20;;;;;;5050620;28;19913;-62
2022/06/16 06:54:42;;;;;;;;;;;20.90;72.90;;;;;;5051262;28;19917;-63
2022/06/16 06:57:10;;;;;;;;;;;20.90;72.90;;;;;;5056141;28;19916;-60
2022/06/16 06:59:35;;;;;;;;;;;20.90;72.90;;;;;;5059697;28;20295;-61
2022/06/16 07:02:00;;;;;;;;;;;20.90;72.80;;;;;;5049510;28;19925;-61
2022/06/16 07:04:26;;;;;;;;;;;20.90;72.90;;;;;;5050847;28;19924;-60
2022/06/16 07:06:52;;;;;;;;;;;20.90;72.90;;;;;;5050391;28;19913;-61
2022/06/16 07:09:17;;;;;;;;;;;20.90;73.40;;;;;;5050659;28;19920;-60
2022/06/16 07:11:43;;;;;;;;;;;21.00;72.60;;;;;;5050768;28;19913;-62
2022/06/16 07:14:09;;;;;;;;;;;21.00;73.00;;;;;;5050659;28;19908;-62
2022/06/16 07:16:34;;;;;;;;;;;21.10;72.60;;;;;;5032721;28;20325;-61
2022/06/16 07:19:00;;;;;;;;;;;21.10;72.40;;;;;;5050796;28;19948;-60
2022/06/16 07:21:26;;;;;;;;;;;21.10;72.40;;;;;;5050343;28;19917;-62
2022/06/16 07:23:51;;;;;;;;;;;21.20;72.40;;;;;;5032124;28;19913;-63
2022/06/16 07:26:17;;;;;;;;;;;21.20;72.30;;;;;;5050169;28;19931;-62
2022/06/16 07:28:43;;;;;;;;;;;21.30;72.30;;;;;;5050787;28;19913;-61
2022/06/16 07:31:08;;;;;;;;;;;21.30;72.20;;;;;;5050200;28;19919;-60
2022/06/16 07:33:34;;;;;;;;;;;21.40;72.00;;;;;;5050131;28;19995;-61
2022/06/16 07:36:00;;;;;;;;;;;21.40;71.80;;;;;;5049730;28;19975;-61
2022/06/16 07:38:25;;;;;;;;;;;21.40;71.70;;;;;;5049815;28;19920;-62
2022/06/16 07:40:52;;;;;;;;;;;21.50;71.60;;;;;;5050492;28;19913;-61
2022/06/16 07:43:18;;;;;;;;;;;21.50;71.40;;;;;;5050403;28;19913;-62
2022/06/16 07:45:45;;;;;;;;;;;21.60;71.20;;;;;;5049587;28;19921;-62
2022/06/16 07:48:11;;;;;;;;;;;21.60;71.10;;;;;;5049691;28;20384;-61
2022/06/16 07:50:37;;;;;;;;;;;21.70;71.10;;;;;;5049955;28;19939;-61
2022/06/16 07:53:03;;;;;;;;;;;21.60;70.60;;;;;;5049584;28;19912;-62
2022/06/16 07:55:29;;;;;;;;;;;21.70;70.50;;;;;;5050600;28;19927;-62
2022/06/16 07:57:55;;;;;;;;;;;21.70;70.60;;;;;;5049365;28;20287;-62
2022/06/16 08:00:25;;;;;;;;;;;21.80;70.40;;;;;;5049227;28;20043;-63
2022/06/16 08:02:51;;;;;;;;;;;21.80;69.90;;;;;;5049789;28;19973;-61
2022/06/16 08:05:17;;;;;;;;;;;21.80;69.50;;;;;;5049494;28;20517;-61
2022/06/16 08:07:43;;;;;;;;;;;21.90;69.20;;;;;;5050948;28;19916;-63
2022/06/16 08:10:11;;;;;;;;;;;21.90;69.50;;;;;;5048358;28;19917;-62
2022/06/16 08:12:37;;;;;;;;;;;22.00;69.10;;;;;;5044464;28;19916;-62
2022/06/16 08:15:03;;;;;;;;;;;22.00;68.50;;;;;;5048916;28;19912;-63
2022/06/16 08:17:31;;;;;;;;;;;22.00;68.00;;;;;;5050137;28;20380;-62
2022/06/16 08:19:56;;;;;;;;;;;22.10;68.20;;;;;;5053321;28;19915;-61
2022/06/16 08:22:22;;;;;;;;;;;22.10;67.60;;;;;;5049808;28;19909;-62
2022/06/16 08:24:48;;;;;;;;;;;22.10;67.50;;;;;;5049379;28;19917;-62
2022/06/16 08:27:14;;;;;;;;;;;22.20;67.30;;;;;;5050767;28;20421;-62
2022/06/16 08:29:41;;;;;;;;;;;22.30;66.50;;;;;;5053385;28;19999;-61
2022/06/16 08:32:07;;;;;;;;;;;22.30;66.60;;;;;;5053751;28;19999;-62
2022/06/16 08:34:32;;;;;;;;;;;22.30;66.20;;;;;;5054100;28;19909;-61
2022/06/16 08:36:58;;;;;;;;;;;22.30;66.70;;;;;;5053124;28;20291;-62
2022/06/16 08:39:23;;;;;;;;;;;22.40;66.40;;;;;;5052883;28;19916;-60
2022/06/16 08:42:01;;;;;;;;;;;22.50;65.10;;;;;;5035304;28;19919;-62
2022/06/16 08:44:33;;;;;;;;;;;22.50;64.50;;;;;;5053057;28;19921;-63
2022/06/16 08:47:18;;;;;;;;;;;22.60;65.10;;;;;;5053621;28;19974;-63
2022/06/16 08:49:54;;;;;;;;;;;22.70;64.60;;;;;;5053919;28;19956;-62
2022/06/16 08:52:29;;;;;;;;;;;22.70;65.10;;;;;;5053256;28;19917;-63
2022/06/16 08:54:54;;;;;;;;;;;22.80;65.20;;;;;;5053061;28;19932;-62
2022/06/16 08:57:26;;;;;;;;;;;22.80;64.20;;;;;;5052694;28;20379;-61
2022/06/16 09:00:05;;;;;;;;;;;22.90;64.10;;;;;;5052533;28;19912;-61
2022/06/16 09:02:51;;;;;;;;;;;22.90;63.20;;;;;;5052693;28;19921;-62
2022/06/16 09:05:23;;;;;;;;;;;22.90;63.50;;;;;;5052497;28;19932;-61
2022/06/16 09:07:52;;;;;;;;;;;23.00;63.70;;;;;;5054043;28;19916;-61
2022/06/16 09:10:24;;;;;;;;;;;23.00;64.10;;;;;;5052561;28;19919;-63
2022/06/16 09:13:02;;;;;;;;;;;23.10;63.70;;;;;;5052736;28;19919;-62
2022/06/16 09:15:27;;;;;;;;;;;23.10;63.00;;;;;;5052697;28;20054;-62
2022/06/16 09:18:11;;;;;;;;;;;23.20;63.40;;;;;;5052406;28;20384;-61
2022/06/16 09:20:43;;;;;;;;;;;23.20;62.00;;;;;;5052545;28;19932;-64
2022/06/16 09:23:21;;;;;;;;;;;23.20;62.40;;;;;;5052339;28;19909;-62
2022/06/16 09:25:48;;;;;;;;;;;23.20;60.50;;;;;;5053212;28;20387;-63
2022/06/16 09:28:15;;;;;;;;;;;23.20;61.90;;;;;;5051895;28;19959;-62
2022/06/16 09:30:42;;;;;;;;;;;23.30;60.50;;;;;;5051641;28;20219;-61
2022/06/16 09:33:12;;;;;;;;;;;23.30;59.80;;;;;;5051569;28;19920;-63
2022/06/16 09:35:38;;;;;;;;;;;23.30;59.70;;;;;;5051879;28;19920;-62
2022/06/16 09:38:08;;;;;;;;;;;23.30;59.40;;;;;;5050680;28;20639;-63
2022/06/16 09:40:51;;;;;;;;;;;23.40;60.50;;;;;;5050300;28;19913;-63
2022/06/16 09:43:19;;;;;;;;;;;23.40;59.00;;;;;;5051803;28;19913;-62
2022/06/16 09:45:51;;;;;;;;;;;23.50;58.60;;;;;;5051365;28;19971;-62
2022/06/16 09:48:22;;;;;;;;;;;23.60;57.80;;;;;;5051634;28;20007;-62
2022/06/16 09:50:53;;;;;;;;;;;23.60;58.30;;;;;;5051354;28;19913;-63
2022/06/16 09:53:28;;;;;;;;;;;23.70;58.00;;;;;;5051694;28;19916;-62
2022/06/16 09:55:53;;;;;;;;;;;23.70;58.60;;;;;;5051650;28;19962;-62
2022/06/16 09:58:18;;;;;;;;;;;23.80;56.80;;;;;;5051750;28;20369;-62
2022/06/16 10:00:44;;;;;;;;;;;23.80;57.30;;;;;;5051074;28;19923;-61
2022/06/16 10:03:16;;;;;;;;;;;23.90;56.60;;;;;;5050660;28;19921;-61
2022/06/16 10:05:51;;;;;;;;;;;23.80;57.60;;;;;;5051366;28;19952;-61
2022/06/16 10:08:24;;;;;;;;;;;23.90;57.30;;;;;;5051391;28;19915;-61
2022/06/16 10:10:56;;;;;;;;;;;24.00;55.00;;;;;;5051450;28;20004;-61
2022/06/16 10:13:33;;;;;;;;;;;24.00;55.30;;;;;;5051545;28;19913;-60
2022/06/16 10:16:18;;;;;;;;;;;24.10;56.30;;;;;;5051148;28;19963;-61
2022/06/16 10:18:44;;;;;;;;;;;24.10;56.10;;;;;;5050747;28;20436;-62
2022/06/16 10:21:10;;;;;;;;;;;24.10;54.90;;;;;;5050663;28;19985;-59
2022/06/16 10:23:44;;;;;;;;;;;24.20;55.20;;;;;;5050461;28;19919;-61
2022/06/16 10:26:10;;;;;;;;;;;24.20;54.60;;;;;;5050417;28;19917;-61
2022/06/16 10:28:42;;;;;;;;;;;24.20;53.40;;;;;;5051707;28;20295;-61
2022/06/16 10:31:08;;;;;;;;;;;24.20;54.50;;;;;;5032398;28;20375;-61
2022/06/16 10:33:51;;;;;;;;;;;24.30;55.00;;;;;;5050648;28;19935;-60
2022/06/16 10:36:22;;;;;;;;;;;24.30;55.50;;;;;;5050061;28;19912;-62
2022/06/16 10:39:09;;;;;;;;;;;24.30;54.00;;;;;;5043744;28;19994;-62
2022/06/16 10:41:43;;;;;;;;;;;24.40;54.30;;;;;;5027461;28;19940;-61
2022/06/16 10:44:13;;;;;;;;;;;24.40;54.50;;;;;;5047305;28;19958;-58
2022/06/16 10:46:45;;;;;;;;;;;24.40;54.80;;;;;;5048158;28;20389;-61
2022/06/16 10:49:15;;;;;;;;;;;24.40;53.50;;;;;;5047513;28;19913;-62
2022/06/16 10:51:50;;;;;;;;;;;24.40;53.50;;;;;;5049171;28;19952;-61
2022/06/16 10:54:30;;;;;;;;;;;24.40;53.40;;;;;;5047582;28;19991;-63
2022/06/16 10:57:04;;;;;;;;;;;24.40;53.20;;;;;;5044806;28;19964;-62
2022/06/16 10:59:34;;;;;;;;;;;24.40;53.80;;;;;;5047678;28;20054;-61
2022/06/16 11:02:01;;;;;;;;;;;24.50;51.90;;;;;;5047660;28;20008;-62
2022/06/16 11:04:34;;;;;;;;;;;24.50;51.60;;;;;;5049008;28;19917;-62
2022/06/16 11:07:00;;;;;;;;;;;24.50;50.60;;;;;;5047684;28;19912;-62
2022/06/16 11:09:27;;;;;;;;;;;24.60;50.60;;;;;;5046565;28;19917;-60
2022/06/16 11:11:55;;;;;;;;;;;24.70;50.00;;;;;;5048032;28;20311;-61
2022/06/16 11:14:41;;;;;;;;;;;24.80;50.00;;;;;;5046538;28;19995;-60
2022/06/16 11:17:16;;;;;;;;;;;24.80;51.10;;;;;;5047118;28;19960;-62
2022/06/16 11:19:44;;;;;;;;;;;24.90;50.60;;;;;;5047505;28;19913;-62
2022/06/16 11:22:40;;;;;;;;;;;24.90;51.50;;;;;;5047528;28;19913;-62
2022/06/16 11:25:12;;;;;;;;;;;25.00;50.60;;;;;;5034432;28;20456;-61
2022/06/16 11:27:40;;;;;;;;;;;25.00;50.10;;;;;;5046261;28;19931;-61
2022/06/16 11:30:28;;;;;;;;;;;25.10;50.10;;;;;;5048569;28;19919;-62
2022/06/16 11:32:53;;;;;;;;;;;25.10;50.90;;;;;;5047070;28;20357;-63
2022/06/16 11:35:22;;;;;;;;;;;25.20;51.10;;;;;;5048549;28;20466;-62
2022/06/16 11:37:50;;;;;;;;;;;25.20;51.50;;;;;;5048193;28;19958;-61
2022/06/16 11:40:22;;;;;;;;;;;25.20;51.50;;;;;;5047937;28;19944;-60
2022/06/16 11:42:53;;;;;;;;;;;25.30;51.80;;;;;;5050534;28;19912;-62
2022/06/16 11:45:28;;;;;;;;;;;25.30;50.90;;;;;;5047608;28;20012;-60
2022/06/16 11:48:14;;;;;;;;;;;25.30;51.20;;;;;;5046801;28;19957;-62
2022/06/16 11:50:45;;;;;;;;;;;25.40;50.40;;;;;;5045433;28;20000;-61
2022/06/16 11:53:43;;;;;;;;;;;25.40;50.40;;;;;;5046965;28;20086;-62
2022/06/16 11:56:15;;;;;;;;;;;25.40;50.70;;;;;;4950449;28;19953;-60
2022/06/16 11:58:51;;;;;;;;;;;25.50;50.70;;;;;;4947279;28;20017;-60
2022/06/16 12:01:38;;;;;;;;;;;25.50;50.20;;;;;;4945669;28;19985;-62
2022/06/16 12:04:13;;;;;;;;;;;25.50;51.20;;;;;;4943710;28;19923;-61
2022/06/16 12:06:57;;;;;;;;;;;25.50;51.20;;;;;;4945672;28;19981;-59
2022/06/16 12:09:25;;;;;;;;;;;25.50;51.50;;;;;;4946800;28;19930;-62
2022/06/16 12:11:50;;;;;;;;;;;25.60;51.90;;;;;;4940641;28;19989;-62
2022/06/16 12:14:29;;;;;;;;;;;25.70;51.70;;;;;;4944937;28;19922;-61
2022/06/16 12:16:58;;;;;;;;;;;25.60;50.90;;;;;;4945728;28;19915;-61
2022/06/16 12:19:35;;;;;;;;;;;25.70;50.20;;;;;;4945431;29;20552;-62
2022/06/16 12:22:09;;;;;;;;;;;25.60;50.10;;;;;;4944263;28;19919;-60
2022/06/16 12:24:41;;;;;;;;;;;25.60;50.10;;;;;;4946294;28;20337;-61
2022/06/16 12:27:15;;;;;;;;;;;25.70;50.00;;;;;;4946077;28;19930;-61
2022/06/16 12:29:40;;;;;;;;;;;25.70;50.80;;;;;;4947441;28;20067;-61
2022/06/16 12:32:25;;;;;;;;;;;25.70;51.30;;;;;;5008525;28;20475;-61
2022/06/16 12:34:56;;;;;;;;;;;25.80;50.30;;;;;;5044118;28;19913;-61
2022/06/16 12:37:25;;;;;;;;;;;26.00;49.80;;;;;;5047609;28;19913;-61
2022/06/16 12:40:09;;;;;;;;;;;26.00;49.60;;;;;;5043633;28;19956;-62
2022/06/16 12:42:38;;;;;;;;;;;26.00;49.60;;;;;;5045444;28;20306;-61
2022/06/16 12:45:08;;;;;;;;;;;26.00;49.70;;;;;;5046326;28;19920;-60
2022/06/16 12:47:37;;;;;;;;;;;26.00;49.60;;;;;;5046251;28;20383;-61
2022/06/16 12:50:34;;;;;;;;;;;26.00;49.60;;;;;;5046823;28;20394;-61
2022/06/16 12:53:00;;;;;;;;;;;26.00;50.00;;;;;;4965756;28;19918;-62
2022/06/16 12:55:42;;;;;;;;;;;26.10;49.40;;;;;;4964780;28;19920;-61
2022/06/16 12:58:10;;;;;;;;;;;26.20;49.60;;;;;;4965712;28;19922;-61
2022/06/16 13:00:40;;;;;;;;;;;26.20;49.10;;;;;;4963670;28;19921;-62
2022/06/16 13:03:11;;;;;;;;;;;26.20;49.10;;;;;;4965039;28;19926;-62
2022/06/16 13:05:38;;;;;;;;;;;26.30;48.90;;;;;;4965034;28;20543;-62
2022/06/16 13:08:04;;;;;;;;;;;26.40;50.30;;;;;;4962255;28;19919;-61
2022/06/16 13:10:35;;;;;;;;;;;26.50;51.10;;;;;;4966481;28;19921;-61
2022/06/16 13:13:01;;;;;;;;;;;26.50;48.40;;;;;;4966638;28;19921;-59
2022/06/16 13:15:26;;;;;;;;;;;26.50;47.80;;;;;;4969076;28;19918;-59
2022/06/16 13:17:54;;;;;;;;;;;26.40;47.70;;;;;;4969004;28;19918;-60
2022/06/16 13:20:22;;;;;;;;;;;26.50;48.40;;;;;;4969571;28;19933;-62
2022/06/16 13:22:56;;;;;;;;;;;26.50;47.70;;;;;;4970184;28;19918;-62
2022/06/16 13:25:42;;;;;;;;;;;26.60;47.70;;;;;;4969625;28;19987;-61
2022/06/16 13:28:16;;;;;;;;;;;26.60;47.30;;;;;;4991486;28;19916;-60
2022/06/16 13:30:56;;;;;;;;;;;26.60;47.10;;;;;;5049144;28;19917;-59
2022/06/16 13:33:30;;;;;;;;;;;26.70;46.70;;;;;;5049270;28;19947;-61
2022/06/16 13:36:14;;;;;;;;;;;26.90;47.40;;;;;;5048235;28;19912;-60
2022/06/16 13:38:41;;;;;;;;;;;26.90;47.50;;;;;;5048841;28;20687;-62
2022/06/16 13:41:30;;;;;;;;;;;26.80;46.80;;;;;;5048412;28;20830;-62
2022/06/16 13:44:13;;;;;;;;;;;26.80;46.90;;;;;;5046890;28;19924;-60
2022/06/16 13:47:05;;;;;;;;;;;26.80;46.80;;;;;;5017231;28;20434;-63
2022/06/16 13:49:35;;;;;;;;;;;26.90;46.90;;;;;;4949811;29;19985;-61
2022/06/16 13:52:24;;;;;;;;;;;27.00;46.90;;;;;;4948751;29;20006;-62
2022/06/16 13:54:50;;;;;;;;;;;27.10;47.20;;;;;;4938912;29;19954;-62
2022/06/16 13:57:27;;;;;;;;;;;27.10;45.30;;;;;;4948880;29;19918;-60
2022/06/16 13:59:57;;;;;;;;;;;27.10;45.90;;;;;;4948552;29;19914;-61
2022/06/16 14:02:23;;;;;;;;;;;27.10;46.20;;;;;;4948780;29;19927;-58
2022/06/16 14:05:00;;;;;;;;;;;27.10;45.40;;;;;;4950226;29;19918;-59
2022/06/16 14:07:27;;;;;;;;;;;27.10;46.30;;;;;;4949750;29;20286;-61
2022/06/16 14:10:06;;;;;;;;;;;27.10;45.30;;;;;;4945257;29;19914;-61
2022/06/16 14:12:48;;;;;;;;;;;27.10;45.20;;;;;;4947995;29;19914;-61
2022/06/16 14:15:14;;;;;;;;;;;27.20;45.00;;;;;;4948207;29;20025;-59
2022/06/16 14:17:43;;;;;;;;;;;27.20;45.30;;;;;;4948850;28;20013;-60
2022/06/16 14:20:20;;;;;;;;;;;27.20;45.80;;;;;;4948629;29;19977;-59
2022/06/16 14:22:47;;;;;;;;;;;27.30;45.80;;;;;;4949649;29;19998;-60
2022/06/16 14:25:19;;;;;;;;;;;27.40;44.10;;;;;;4949504;28;20429;-59
2022/06/16 14:27:44;;;;;;;;;;;27.40;45.10;;;;;;5011180;28;19913;-60
2022/06/16 14:30:14;;;;;;;;;;;27.40;44.60;;;;;;5010786;28;19971;-58
2022/06/16 14:32:44;;;;;;;;;;;27.50;44.30;;;;;;5010036;28;19917;-61
2022/06/16 14:35:13;;;;;;;;;;;27.50;44.70;;;;;;5009338;28;20000;-61
2022/06/16 14:37:57;;;;;;;;;;;27.50;45.60;;;;;;5009932;28;19921;-61
2022/06/16 14:40:27;;;;;;;;;;;27.50;45.30;;;;;;5013365;28;19925;-57
2022/06/16 14:42:53;;;;;;;;;;;27.60;45.50;;;;;;5005310;28;19964;-62
2022/06/16 14:45:23;;;;;;;;;;;27.60;45.70;;;;;;5008939;28;19955;-60
2022/06/16 14:48:07;;;;;;;;;;;27.70;46.30;;;;;;5009741;28;20048;-59